Sun Valley, Arizona
Current Conditions -  °F | °C
As of 12:56 PM on Sunday 23 Nov 2014 (Local Time) from KINW Reporting Station
Clear Clear  
Wind Chill: 51°   Ceiling: Unl
Heat Index: 51°   Visibility: 10mi
Dew Point: -3°   Wind: 21mph
Humidity: 11%   Direction: 320°NW
Pressure: 30.1"   Gusts: 35mph
Location:  34.9°N, 110.16°W
Report Text: KINW 231956Z AUTO 32018G30KT 10SM CLR 11/M19 A3010 RMK AO2 PK WND 32033/1944 SLP174 T01061194
Loading
Personal Weather Stations






























Interactive Weather Map New forecast layout! Learn more

10-Day Weather Forecast

Advertisements
Track Severe Weather on mobile